createdAt,value
2018-09-12T00:01:05.055Z,19.80
2018-09-12T00:03:33.337Z,19.70
2018-09-12T00:06:01.471Z,19.70
2018-09-12T00:08:29.694Z,19.70
2018-09-12T00:10:58.048Z,19.70
2018-09-12T00:13:26.330Z,19.60
2018-09-12T00:15:54.535Z,19.60
2018-09-12T00:18:22.663Z,19.60
2018-09-12T00:20:51.023Z,19.60
2018-09-12T00:23:19.295Z,19.50
2018-09-12T00:25:47.564Z,19.50
2018-09-12T00:28:16.779Z,19.50
2018-09-12T00:30:44.945Z,19.50
2018-09-12T00:36:03.590Z,19.30
2018-09-12T00:38:31.972Z,19.30
2018-09-12T00:41:00.108Z,19.20
2018-09-12T00:43:28.219Z,19.20
2018-09-12T00:45:56.399Z,19.10
2018-09-12T00:48:24.587Z,19.10
2018-09-12T00:50:52.761Z,19.00
2018-09-12T00:53:20.932Z,19.00
2018-09-12T00:55:49.105Z,18.90
2018-09-12T00:58:17.229Z,18.90
2018-09-12T01:00:45.391Z,18.90
2018-09-12T01:03:13.621Z,18.90
2018-09-12T01:05:42.866Z,18.90
2018-09-12T01:08:12.520Z,18.80
2018-09-12T01:10:40.676Z,18.80
2018-09-12T01:13:09.313Z,18.80
2018-09-12T01:15:38.130Z,18.90
2018-09-12T01:18:07.386Z,18.90
2018-09-12T01:20:35.700Z,18.90
2018-09-12T01:23:03.926Z,18.80
2018-09-12T01:25:33.582Z,18.80
2018-09-12T01:28:01.761Z,18.80
2018-09-12T01:30:29.887Z,18.70
2018-09-12T01:32:58.050Z,18.70
2018-09-12T01:35:26.239Z,18.60
2018-09-12T01:37:55.865Z,18.60
2018-09-12T01:40:24.079Z,18.60
2018-09-12T01:42:52.273Z,18.60
2018-09-12T01:45:21.049Z,18.50
2018-09-12T01:47:49.462Z,18.50
2018-09-12T01:50:17.674Z,18.50
2018-09-12T01:52:46.724Z,18.50
2018-09-12T01:55:15.030Z,18.50
2018-09-12T01:57:43.227Z,18.50
2018-09-12T02:00:15.487Z,18.50
2018-09-12T02:02:44.103Z,18.40
2018-09-12T02:05:12.273Z,18.40
2018-09-12T02:07:40.414Z,18.40
2018-09-12T02:10:10.057Z,18.40
2018-09-12T02:12:38.433Z,18.40
2018-09-12T02:15:08.345Z,18.40
2018-09-12T02:17:36.554Z,18.40
2018-09-12T02:20:05.324Z,18.40
2018-09-12T02:22:34.124Z,18.40
2018-09-12T02:25:02.371Z,18.30
2018-09-12T02:27:30.530Z,18.30
2018-09-12T02:29:58.756Z,18.30
2018-09-12T02:32:27.174Z,18.30
2018-09-12T02:34:55.323Z,18.20
2018-09-12T02:37:24.796Z,18.20
2018-09-12T02:39:53.000Z,18.20
2018-09-12T02:42:21.181Z,18.20
2018-09-12T02:44:49.371Z,18.20
2018-09-12T02:47:23.081Z,18.20
2018-09-12T02:49:51.213Z,18.20
2018-09-12T02:52:19.415Z,18.20
2018-09-12T02:54:47.657Z,18.20
2018-09-12T02:57:16.074Z,18.20
2018-09-12T02:59:44.347Z,18.10
2018-09-12T03:02:12.530Z,18.10
2018-09-12T03:04:40.656Z,18.10
2018-09-12T03:07:08.814Z,18.10
2018-09-12T03:09:36.988Z,18.10
2018-09-12T03:12:05.182Z,18.00
2018-09-12T03:14:33.360Z,18.00
2018-09-12T03:17:01.676Z,18.00
2018-09-12T03:19:29.875Z,18.00
2018-09-12T03:21:58.051Z,18.00
2018-09-12T03:24:26.163Z,18.00
2018-09-12T03:26:54.303Z,17.90
2018-09-12T03:29:22.495Z,18.00
2018-09-12T03:31:50.643Z,17.90
2018-09-12T03:34:19.667Z,17.90
2018-09-12T03:36:47.827Z,17.90
2018-09-12T03:39:15.983Z,17.90
2018-09-12T03:41:44.139Z,17.90
2018-09-12T03:44:12.712Z,17.90
2018-09-12T03:46:41.569Z,17.80
2018-09-12T03:49:09.931Z,17.80
2018-09-12T03:51:39.031Z,17.80
2018-09-12T03:54:07.255Z,17.80
2018-09-12T03:56:35.507Z,17.80
2018-09-12T03:59:03.671Z,17.80
2018-09-12T04:01:31.939Z,17.80
2018-09-12T04:04:00.080Z,17.80
2018-09-12T04:06:29.736Z,17.90
2018-09-12T04:08:57.995Z,17.80
2018-09-12T04:11:26.376Z,17.90
2018-09-12T04:13:54.500Z,17.90
2018-09-12T04:16:22.655Z,17.90
2018-09-12T04:18:50.827Z,17.90
2018-09-12T04:21:19.905Z,17.90
2018-09-12T04:23:48.365Z,17.90
2018-09-12T04:26:17.089Z,17.90
2018-09-12T04:28:45.253Z,17.90
2018-09-12T04:31:13.503Z,17.80
2018-09-12T04:33:41.672Z,17.80
2018-09-12T04:36:09.884Z,17.80
2018-09-12T04:38:38.056Z,17.80
2018-09-12T04:41:06.416Z,17.80
2018-09-12T04:43:34.605Z,17.80
2018-09-12T04:46:02.845Z,17.80
2018-09-12T04:48:32.223Z,17.80
2018-09-12T04:51:00.452Z,17.80
2018-09-12T04:53:28.639Z,17.80
2018-09-12T04:55:56.769Z,17.80
2018-09-12T05:01:02.378Z,17.80
2018-09-12T05:03:30.653Z,17.80
2018-09-12T05:05:58.829Z,17.80
2018-09-12T05:08:26.959Z,17.90
2018-09-12T05:10:55.114Z,17.90
2018-09-12T05:13:23.307Z,18.00
2018-09-12T05:15:51.559Z,18.00
2018-09-12T05:18:21.409Z,18.00
2018-09-12T05:20:49.614Z,18.00
2018-09-12T05:23:17.909Z,18.10
2018-09-12T05:25:46.102Z,18.10
2018-09-12T05:28:14.326Z,18.20
2018-09-12T05:30:42.480Z,18.20
2018-09-12T05:33:11.099Z,18.30
2018-09-12T05:35:39.263Z,18.30
2018-09-12T05:38:07.434Z,18.40
2018-09-12T05:40:35.613Z,18.40
2018-09-12T05:43:03.779Z,18.50
2018-09-12T05:45:31.945Z,18.50
2018-09-12T05:48:00.100Z,18.60
2018-09-12T05:50:28.921Z,18.60
2018-09-12T05:52:57.065Z,18.60
2018-09-12T05:55:25.212Z,18.70
2018-09-12T05:57:53.377Z,18.70
2018-09-12T06:00:22.645Z,18.80
2018-09-12T06:02:51.011Z,18.90
2018-09-12T06:05:19.187Z,19.10
2018-09-12T06:07:47.374Z,19.30
2018-09-12T06:10:17.089Z,19.60
2018-09-12T06:12:45.249Z,20.00
2018-09-12T06:15:13.563Z,20.30
2018-09-12T06:17:41.755Z,20.60
2018-09-12T06:20:09.931Z,20.80
2018-09-12T06:22:38.121Z,21.00
2018-09-12T06:25:06.388Z,21.20
2018-09-12T06:27:34.685Z,21.40
2018-09-12T06:30:02.950Z,21.50
2018-09-12T06:32:31.205Z,21.60
2018-09-12T06:34:59.351Z,21.70
2018-09-12T06:37:27.541Z,21.80
2018-09-12T06:39:56.125Z,22.00
2018-09-12T06:42:24.318Z,22.40
2018-09-12T06:44:52.529Z,22.20
2018-09-12T06:47:20.697Z,22.30
2018-09-12T06:49:49.507Z,22.40
2018-09-12T06:52:20.187Z,22.50
2018-09-12T06:54:48.713Z,22.50
2018-09-12T06:57:16.993Z,22.60
2018-09-12T06:59:45.273Z,22.70
2018-09-12T07:02:13.436Z,22.70
2018-09-12T07:04:41.575Z,22.80
2018-09-12T07:07:09.699Z,22.80
2018-09-12T07:09:38.198Z,22.90
2018-09-12T07:12:06.684Z,22.90
2018-09-12T07:14:34.875Z,23.00
2018-09-12T07:17:03.038Z,23.00
2018-09-12T07:19:31.236Z,23.10
2018-09-12T07:21:59.440Z,23.10
2018-09-12T07:24:27.620Z,23.20
2018-09-12T07:26:55.745Z,23.30
2018-09-12T07:29:23.928Z,23.30
2018-09-12T07:31:52.109Z,23.30
2018-09-12T07:34:20.294Z,23.40
2018-09-12T07:36:48.480Z,23.40
2018-09-12T07:39:16.692Z,23.40
2018-09-12T07:41:44.850Z,23.40
2018-09-12T07:44:13.034Z,23.40
2018-09-12T07:46:41.231Z,23.40
2018-09-12T07:49:09.504Z,23.50
2018-09-12T07:51:37.595Z,23.40
2018-09-12T07:54:05.729Z,23.40
2018-09-12T07:56:34.556Z,23.40
2018-09-12T07:59:02.770Z,23.40
2018-09-12T08:01:30.887Z,23.50
2018-09-12T08:03:59.087Z,23.50
2018-09-12T08:06:27.287Z,23.50
2018-09-12T08:08:55.437Z,23.60
2018-09-12T08:11:23.593Z,23.70
2018-09-12T08:13:51.857Z,24.00
2018-09-12T08:16:20.020Z,24.30
2018-09-12T08:18:48.156Z,24.50
2018-09-12T08:21:16.327Z,24.70
2018-09-12T08:23:44.579Z,24.80
2018-09-12T08:26:12.783Z,24.90
2018-09-12T08:28:41.086Z,25.10
2018-09-12T08:31:09.314Z,25.10
2018-09-12T08:33:38.859Z,25.30
2018-09-12T08:36:07.115Z,25.40
2018-09-12T08:38:35.245Z,25.50
2018-09-12T08:41:03.395Z,25.50
2018-09-12T08:43:32.417Z,25.50
2018-09-12T08:46:00.583Z,25.70
2018-09-12T08:48:29.365Z,25.70
2018-09-12T08:50:57.609Z,25.80
2018-09-12T08:53:25.733Z,25.80
2018-09-12T08:55:53.937Z,25.80
2018-09-12T08:58:22.081Z,25.80
2018-09-12T09:00:50.506Z,25.80
2018-09-12T09:03:18.709Z,25.80
2018-09-12T09:05:46.857Z,25.80
2018-09-12T09:08:14.967Z,25.90
2018-09-12T09:10:43.085Z,25.90
2018-09-12T09:13:11.335Z,26.00
2018-09-12T09:15:39.500Z,26.00
2018-09-12T09:18:07.675Z,26.10
2018-09-12T09:20:35.797Z,26.40
2018-09-12T09:23:03.957Z,26.50
2018-09-12T09:25:32.120Z,26.70
2018-09-12T09:28:00.245Z,26.80
2018-09-12T09:30:30.141Z,27.00
2018-09-12T09:32:58.251Z,27.10
2018-09-12T09:35:26.457Z,27.10
2018-09-12T09:37:54.537Z,27.20
2018-09-12T09:40:22.693Z,27.40
2018-09-12T09:42:50.843Z,27.50
2018-09-12T09:45:18.941Z,27.40
2018-09-12T09:47:47.267Z,27.10
2018-09-12T09:50:16.498Z,27.00
2018-09-12T09:52:44.662Z,27.00
2018-09-12T09:55:13.538Z,27.00
2018-09-12T09:57:41.552Z,26.90
2018-09-12T10:00:15.641Z,26.80
2018-09-12T10:02:48.036Z,26.80
2018-09-12T10:05:21.615Z,26.80
2018-09-12T10:07:54.022Z,26.90
2018-09-12T10:10:22.116Z,27.00
2018-09-12T10:12:50.286Z,27.10
2018-09-12T10:15:18.384Z,27.10
2018-09-12T10:17:47.763Z,27.20
2018-09-12T10:20:15.912Z,27.20
2018-09-12T10:22:44.078Z,27.10
2018-09-12T10:25:12.264Z,27.10
2018-09-12T10:27:40.523Z,27.00
2018-09-12T10:30:09.511Z,27.00
2018-09-12T10:32:37.860Z,27.00
2018-09-12T10:35:06.010Z,27.00
2018-09-12T10:37:35.165Z,26.90
2018-09-12T10:40:03.318Z,27.00
2018-09-12T10:42:31.580Z,27.20
2018-09-12T10:44:59.723Z,27.40
2018-09-12T10:47:27.891Z,27.60
2018-09-12T10:49:56.037Z,27.60
2018-09-12T10:52:24.244Z,27.60
2018-09-12T10:54:52.385Z,27.50
2018-09-12T10:57:20.576Z,27.40
2018-09-12T10:59:48.892Z,27.40
2018-09-12T11:02:17.064Z,27.40
2018-09-12T11:04:45.258Z,27.40
2018-09-12T11:07:13.399Z,27.30
2018-09-12T11:09:41.654Z,27.30
2018-09-12T11:12:09.820Z,27.40
2018-09-12T11:14:38.504Z,27.60
2018-09-12T11:17:06.658Z,27.60
2018-09-12T11:19:34.843Z,27.40
2018-09-12T11:22:03.042Z,27.30
2018-09-12T11:24:31.186Z,27.30
2018-09-12T11:26:59.480Z,27.20
2018-09-12T11:29:27.620Z,27.00
2018-09-12T11:31:55.794Z,26.90
2018-09-12T11:34:23.966Z,27.00
2018-09-12T11:36:52.091Z,27.10
2018-09-12T11:39:20.220Z,27.20
2018-09-12T11:41:48.378Z,27.40
2018-09-12T11:44:16.553Z,27.70
2018-09-12T11:46:44.767Z,27.80
2018-09-12T11:49:13.027Z,28.00
2018-09-12T11:51:41.150Z,28.00
2018-09-12T11:54:10.814Z,28.00
2018-09-12T11:56:38.992Z,28.00
2018-09-12T11:59:07.272Z,28.10
2018-09-12T12:01:35.540Z,28.20
2018-09-12T12:04:05.266Z,28.40
2018-09-12T12:06:33.472Z,28.40
2018-09-12T12:09:01.724Z,28.30
2018-09-12T12:11:29.920Z,28.10
2018-09-12T12:13:58.142Z,28.00
2018-09-12T12:16:26.355Z,28.00
2018-09-12T12:18:55.166Z,28.00
2018-09-12T12:21:24.295Z,28.10
2018-09-12T12:23:52.422Z,28.20
2018-09-12T12:26:20.602Z,28.30
2018-09-12T12:28:48.748Z,28.40
2018-09-12T12:31:16.886Z,28.50
2018-09-12T12:33:45.015Z,28.60
2018-09-12T12:36:14.287Z,28.60
2018-09-12T12:38:42.419Z,28.60
2018-09-12T12:41:11.125Z,28.70
2018-09-12T12:43:39.327Z,28.70
2018-09-12T12:46:07.533Z,28.80
2018-09-12T12:48:35.673Z,28.90
2018-09-12T12:51:03.882Z,29.00
2018-09-12T12:53:32.036Z,29.00
2018-09-12T12:56:00.229Z,29.10
2018-09-12T12:58:28.362Z,29.00
2018-09-12T13:00:57.714Z,28.90
2018-09-12T13:03:25.895Z,28.90
2018-09-12T13:05:54.052Z,29.00
2018-09-12T13:08:22.198Z,29.10
2018-09-12T13:10:50.399Z,29.00
2018-09-12T13:13:18.511Z,28.90
2018-09-12T13:15:46.678Z,28.80
2018-09-12T13:18:15.096Z,28.70
2018-09-12T13:20:44.227Z,28.50
2018-09-12T13:23:12.359Z,28.10
2018-09-12T13:25:40.536Z,27.70
2018-09-12T13:28:08.754Z,27.30
2018-09-12T13:30:36.914Z,27.10
2018-09-12T13:33:05.090Z,27.00
2018-09-12T13:35:33.370Z,27.00
2018-09-12T13:38:01.532Z,27.00
2018-09-12T13:40:30.336Z,27.00
2018-09-12T13:42:58.548Z,27.00
2018-09-12T13:45:26.746Z,26.90
2018-09-12T13:47:54.919Z,26.90
2018-09-12T13:50:23.058Z,26.80
2018-09-12T13:52:52.396Z,26.90
2018-09-12T13:55:20.567Z,27.00
2018-09-12T13:57:48.747Z,27.10
2018-09-12T14:00:16.986Z,27.20
2018-09-12T14:02:45.151Z,27.30
2018-09-12T14:05:13.337Z,27.40
2018-09-12T14:07:41.572Z,27.40
2018-09-12T14:10:09.780Z,27.30
2018-09-12T14:12:37.898Z,27.10
2018-09-12T14:15:06.088Z,27.10
2018-09-12T14:17:34.281Z,27.00
2018-09-12T14:20:02.434Z,27.00
2018-09-12T14:22:30.688Z,27.00
2018-09-12T14:24:58.853Z,27.00
2018-09-12T14:27:26.996Z,27.10
2018-09-12T14:29:55.164Z,27.10
2018-09-12T14:32:23.402Z,27.10
2018-09-12T14:34:51.586Z,27.10
2018-09-12T14:37:19.713Z,27.10
2018-09-12T14:39:47.989Z,27.10
2018-09-12T14:42:16.144Z,27.00
2018-09-12T14:44:44.309Z,27.00
2018-09-12T14:47:12.431Z,26.80
2018-09-12T14:49:40.664Z,26.60
2018-09-12T14:52:08.786Z,26.40
2018-09-12T14:54:36.948Z,26.30
2018-09-12T14:57:05.230Z,26.20
2018-09-12T14:59:33.558Z,26.20
2018-09-12T15:02:01.714Z,26.20
2018-09-12T15:04:29.851Z,26.20
2018-09-12T15:06:58.013Z,26.10
2018-09-12T15:09:26.199Z,26.10
2018-09-12T15:11:54.405Z,26.10
2018-09-12T15:14:22.605Z,26.10
2018-09-12T15:16:50.767Z,26.10
2018-09-12T15:19:18.957Z,26.20
2018-09-12T15:21:47.109Z,26.10
2018-09-12T15:24:15.276Z,26.00
2018-09-12T15:26:44.316Z,25.90
2018-09-12T15:29:13.105Z,25.70
2018-09-12T15:31:41.513Z,25.70
2018-09-12T15:34:09.709Z,25.60
2018-09-12T15:36:37.985Z,25.40
2018-09-12T15:39:08.036Z,25.30
2018-09-12T15:41:36.221Z,25.30
2018-09-12T15:44:04.433Z,25.20
2018-09-12T15:46:32.661Z,25.10
2018-09-12T15:49:00.825Z,25.00
2018-09-12T15:51:29.203Z,24.90
2018-09-12T15:53:57.372Z,24.80
2018-09-12T15:56:25.525Z,24.60
2018-09-12T15:58:54.101Z,24.50
2018-09-12T16:01:22.267Z,24.30
2018-09-12T16:03:50.468Z,24.10
2018-09-12T16:06:18.629Z,24.00
2018-09-12T16:08:46.839Z,24.00
2018-09-12T16:11:15.083Z,23.90
2018-09-12T16:13:43.251Z,23.80
2018-09-12T16:16:12.069Z,23.70
2018-09-12T16:18:40.294Z,23.70
2018-09-12T16:21:08.468Z,23.60
2018-09-12T16:23:36.657Z,23.50
2018-09-12T16:26:04.882Z,23.40
2018-09-12T16:28:33.092Z,23.30
2018-09-12T16:31:01.268Z,23.20
2018-09-12T16:33:29.422Z,23.10
2018-09-12T16:35:57.567Z,23.00
2018-09-12T16:38:25.702Z,22.80
2018-09-12T16:40:53.845Z,22.60
2018-09-12T16:43:21.986Z,22.50
2018-09-12T16:45:51.076Z,22.40
2018-09-12T16:48:19.285Z,22.30
2018-09-12T16:50:47.543Z,22.30
2018-09-12T16:53:15.924Z,22.20
2018-09-12T16:55:44.100Z,22.10
2018-09-12T16:58:12.823Z,22.00
2018-09-12T17:00:40.992Z,21.80
2018-09-12T17:03:09.162Z,21.70
2018-09-12T17:05:37.376Z,21.50
2018-09-12T17:08:05.532Z,21.40
2018-09-12T17:10:33.707Z,21.40
2018-09-12T17:13:01.859Z,21.30
2018-09-12T17:15:29.989Z,21.30
2018-09-12T17:17:58.145Z,21.10
2018-09-12T17:20:26.264Z,21.00
2018-09-12T17:22:54.440Z,20.90
2018-09-12T17:25:22.591Z,20.80
2018-09-12T17:27:50.757Z,20.70
2018-09-12T17:30:18.908Z,20.70
2018-09-12T17:32:47.200Z,20.60
2018-09-12T17:35:15.434Z,20.60
2018-09-12T17:37:43.568Z,20.50
2018-09-12T17:40:11.722Z,20.50
2018-09-12T17:42:39.875Z,20.50
2018-09-12T17:45:08.699Z,20.50
2018-09-12T17:47:37.210Z,20.40
2018-09-12T17:50:05.621Z,20.40
2018-09-12T17:52:34.040Z,20.40
2018-09-12T17:55:02.193Z,20.40
2018-09-12T17:57:30.381Z,20.30
2018-09-12T17:59:58.512Z,20.30
2018-09-12T18:02:26.668Z,20.20
2018-09-12T18:04:55.082Z,20.10
2018-09-12T18:07:23.323Z,20.10
2018-09-12T18:09:51.498Z,20.00
2018-09-12T18:12:19.673Z,19.90
2018-09-12T18:14:47.942Z,19.90
2018-09-12T18:17:16.567Z,19.80
2018-09-12T18:19:45.415Z,19.80
2018-09-12T18:22:13.600Z,19.70
2018-09-12T18:24:41.809Z,19.70
2018-09-12T18:27:09.929Z,19.60
2018-09-12T18:29:38.106Z,19.50
2018-09-12T18:32:06.301Z,19.40
2018-09-12T18:34:34.468Z,19.40
2018-09-12T18:37:02.648Z,19.40
2018-09-12T18:39:30.826Z,19.30
2018-09-12T18:41:59.356Z,19.20
2018-09-12T18:44:27.503Z,19.20
2018-09-12T18:46:55.952Z,19.20
2018-09-12T18:49:26.007Z,19.20
2018-09-12T18:51:54.236Z,19.10
2018-09-12T18:54:22.714Z,19.10
2018-09-12T18:56:52.105Z,19.00
2018-09-12T18:59:20.299Z,18.90
2018-09-12T19:01:48.579Z,18.90
2018-09-12T19:04:16.783Z,18.90
2018-09-12T19:06:44.953Z,18.80
2018-09-12T19:09:13.422Z,18.60
2018-09-12T19:11:41.778Z,18.60
2018-09-12T19:14:09.964Z,18.60
2018-09-12T19:16:38.148Z,18.50
2018-09-12T19:19:06.373Z,18.60
2018-09-12T19:21:34.904Z,18.60
2018-09-12T19:24:03.123Z,18.50
2018-09-12T19:26:31.435Z,18.40
2018-09-12T19:29:01.080Z,18.40
2018-09-12T19:31:29.235Z,18.40
2018-09-12T19:33:57.425Z,18.30
2018-09-12T19:36:25.672Z,18.20
2018-09-12T19:38:53.777Z,18.20
2018-09-12T19:41:22.003Z,18.20
2018-09-12T19:43:50.815Z,18.30
2018-09-12T19:46:19.185Z,18.30
2018-09-12T19:48:47.340Z,18.30
2018-09-12T19:51:17.611Z,18.20
2018-09-12T19:53:46.209Z,18.20
2018-09-12T19:56:15.052Z,18.10
2018-09-12T19:58:44.050Z,18.20
2018-09-12T20:01:12.261Z,18.10
2018-09-12T20:03:41.018Z,18.10
2018-09-12T20:06:10.246Z,18.00
2018-09-12T20:08:38.560Z,18.00
2018-09-12T20:11:06.835Z,17.90
2018-09-12T20:13:35.139Z,17.80
2018-09-12T20:16:03.564Z,17.80
2018-09-12T20:18:31.897Z,17.80
2018-09-12T20:21:01.131Z,17.80
2018-09-12T20:23:29.356Z,17.80
2018-09-12T20:25:57.949Z,17.90
2018-09-12T20:28:26.122Z,17.90
2018-09-12T20:30:55.837Z,17.90
2018-09-12T20:33:24.740Z,17.80
2018-09-12T20:35:52.981Z,17.70
2018-09-12T20:38:21.260Z,17.70
2018-09-12T20:40:50.143Z,17.60
2018-09-12T20:43:18.595Z,17.60
2018-09-12T20:45:47.951Z,17.60
2018-09-12T20:48:16.125Z,17.60
2018-09-12T20:50:44.344Z,17.60
2018-09-12T20:53:12.534Z,17.50
2018-09-12T20:55:41.334Z,17.50
2018-09-12T20:58:09.580Z,17.40
2018-09-12T21:00:39.446Z,17.30
2018-09-12T21:03:07.855Z,17.20
2018-09-12T21:05:36.240Z,17.20
2018-09-12T21:08:04.916Z,17.20
2018-09-12T21:10:33.165Z,17.20
2018-09-12T21:13:01.342Z,17.30
2018-09-12T21:15:29.559Z,17.30
2018-09-12T21:17:57.681Z,17.40
2018-09-12T21:20:25.838Z,17.40
2018-09-12T21:22:54.084Z,17.50
2018-09-12T21:25:22.269Z,17.50
2018-09-12T21:27:50.423Z,17.60
2018-09-12T21:30:18.597Z,17.60
2018-09-12T21:32:48.745Z,17.60
2018-09-12T21:35:18.225Z,17.50
2018-09-12T21:37:46.407Z,17.50
2018-09-12T21:40:15.125Z,17.50
2018-09-12T21:42:43.414Z,17.50
2018-09-12T21:45:11.659Z,17.60
2018-09-12T21:47:42.958Z,17.60
2018-09-12T21:50:12.857Z,17.60
2018-09-12T21:52:41.203Z,17.60
2018-09-12T21:55:09.512Z,17.60
2018-09-12T21:57:38.853Z,17.50
2018-09-12T22:00:08.067Z,17.50
2018-09-12T22:02:36.456Z,17.50
2018-09-12T22:05:05.093Z,17.50
2018-09-12T22:07:35.600Z,17.50
2018-09-12T22:10:06.058Z,17.50
2018-09-12T22:12:34.535Z,17.50
2018-09-12T22:15:05.855Z,17.50
2018-09-12T22:17:34.162Z,17.50
2018-09-12T22:20:02.354Z,17.50
2018-09-12T22:22:31.448Z,17.50
2018-09-12T22:24:59.811Z,17.50
2018-09-12T22:27:28.135Z,17.50
2018-09-12T22:29:56.480Z,17.50
2018-09-12T22:32:25.427Z,17.40
2018-09-12T22:34:54.394Z,17.40
2018-09-12T22:37:22.850Z,17.40
2018-09-12T22:39:51.044Z,17.30
2018-09-12T22:42:19.863Z,17.40
2018-09-12T22:44:49.040Z,17.40
2018-09-12T22:47:17.779Z,17.40
2018-09-12T22:49:46.804Z,17.30
2018-09-12T22:52:15.119Z,17.40
2018-09-12T22:54:44.046Z,17.40
2018-09-12T22:57:12.351Z,17.30
2018-09-12T22:59:40.567Z,17.30
2018-09-12T23:02:08.814Z,17.20
2018-09-12T23:04:37.051Z,17.20
2018-09-12T23:07:05.491Z,17.30
2018-09-12T23:09:37.277Z,17.30
2018-09-12T23:12:05.435Z,17.40
2018-09-12T23:14:33.753Z,17.40
2018-09-12T23:17:02.044Z,17.40
2018-09-12T23:19:30.791Z,17.30
2018-09-12T23:21:59.111Z,17.40
2018-09-12T23:24:28.516Z,17.30
2018-09-12T23:26:56.763Z,17.30
2018-09-12T23:29:24.885Z,17.20
2018-09-12T23:31:54.653Z,17.20
2018-09-12T23:34:22.771Z,17.20
2018-09-12T23:36:53.477Z,17.20
2018-09-12T23:39:22.397Z,17.20
2018-09-12T23:41:51.476Z,17.10
2018-09-12T23:44:19.760Z,17.10
2018-09-12T23:46:48.565Z,17.10
2018-09-12T23:49:17.355Z,17.10
2018-09-12T23:51:45.741Z,17.20
2018-09-12T23:54:14.315Z,17.10
2018-09-12T23:56:42.472Z,17.10
2018-09-12T23:59:10.709Z,17.10
